createdAt,value
2023-02-04T00:04:59.417Z,-1.16
2023-02-04T00:13:22.568Z,-1.26
2023-02-04T00:21:46.290Z,-1.30
2023-02-04T00:30:10.955Z,-1.37
2023-02-04T00:38:34.141Z,-1.43
2023-02-04T00:46:58.314Z,-1.41
2023-02-04T00:55:21.683Z,-1.48
2023-02-04T01:03:44.863Z,-1.50
2023-02-04T01:12:08.009Z,-1.56
2023-02-04T01:20:33.120Z,-1.65
2023-02-04T01:28:56.377Z,-1.66
2023-02-04T01:37:21.027Z,-1.76
2023-02-04T01:45:46.614Z,-1.76
2023-02-04T01:54:13.429Z,-1.79
2023-02-04T02:02:42.791Z,-1.74
2023-02-04T02:11:09.083Z,-1.76
2023-02-04T02:19:38.387Z,-1.73
2023-02-04T02:28:13.624Z,-1.70
2023-02-04T02:36:37.063Z,-1.71
2023-02-04T02:45:01.479Z,-1.74
2023-02-04T02:53:24.472Z,-1.73
2023-02-04T03:01:51.974Z,-1.77
2023-02-04T03:10:18.291Z,-1.75
2023-02-04T03:18:42.791Z,-1.82
2023-02-04T03:27:08.781Z,-1.82
2023-02-04T03:35:32.014Z,-1.82
2023-02-04T03:43:55.727Z,-1.87
2023-02-04T03:52:20.409Z,-1.91
2023-02-04T04:00:43.720Z,-1.98
2023-02-04T04:09:06.882Z,-2.03
2023-02-04T04:17:30.079Z,-2.08
2023-02-04T04:25:53.266Z,-2.02
2023-02-04T04:34:16.591Z,-1.98
2023-02-04T04:42:39.961Z,-2.00
2023-02-04T04:51:03.569Z,-2.01
2023-02-04T04:59:27.089Z,-2.15
2023-02-04T05:07:50.315Z,-2.22
2023-02-04T05:16:15.169Z,-2.36
2023-02-04T05:24:38.523Z,-2.50
2023-02-04T05:33:03.662Z,-2.52
2023-02-04T05:41:26.886Z,-2.52
2023-02-04T05:49:50.328Z,-2.39
2023-02-04T05:58:13.291Z,-2.34
2023-02-04T06:06:36.468Z,-2.27
2023-02-04T06:14:59.694Z,-2.22
2023-02-04T06:23:22.905Z,-2.13
2023-02-04T06:31:47.393Z,-2.04
2023-02-04T06:40:11.829Z,-2.04
2023-02-04T06:48:35.245Z,-1.95
2023-02-04T06:57:06.568Z,-1.85
2023-02-04T07:05:30.262Z,-1.75
2023-02-04T07:13:53.429Z,-1.56
2023-02-04T07:22:16.542Z,-1.43
2023-02-04T07:30:41.964Z,-1.34
2023-02-04T07:39:05.858Z,-1.23
2023-02-04T07:47:31.404Z,-1.16
2023-02-04T07:55:57.989Z,-1.01
2023-02-04T08:04:21.651Z,-1.09
2023-02-04T08:12:44.886Z,-1.16
2023-02-04T08:21:18.292Z,-1.31
2023-02-04T08:29:44.234Z,-1.49
2023-02-04T08:38:11.064Z,-1.50
2023-02-04T08:46:48.577Z,-1.47
2023-02-04T08:55:13.801Z,-1.37
2023-02-04T09:03:39.250Z,-1.19
2023-02-04T09:12:03.505Z,-0.98
2023-02-04T09:20:27.810Z,-0.83
2023-02-04T09:28:52.221Z,-0.78
2023-02-04T09:37:16.980Z,-0.87
2023-02-04T09:45:43.064Z,-0.68
2023-02-04T09:54:14.635Z,-0.66
2023-02-04T10:02:39.838Z,-0.40
2023-02-04T10:11:04.391Z,-0.03
2023-02-04T10:19:31.619Z,-0.22
2023-02-04T10:28:03.013Z,-0.46
2023-02-04T10:36:27.370Z,-0.48
2023-02-04T10:44:52.263Z,-0.34
2023-02-04T10:53:58.683Z,-0.18
2023-02-04T11:13:08.774Z,0.44
2023-02-04T11:22:35.888Z,0.42
2023-02-04T11:31:20.012Z,-0.09
2023-02-04T11:39:53.342Z,-0.67
2023-02-04T11:48:20.180Z,-1.12
2023-02-04T11:56:53.804Z,-1.54
2023-02-04T12:05:20.858Z,-1.80
2023-02-04T12:14:17.860Z,-1.95
2023-02-04T12:22:43.109Z,-1.95
2023-02-04T12:31:08.671Z,-2.02
2023-02-04T12:39:35.871Z,-2.06
2023-02-04T12:48:02.497Z,-2.27
2023-02-04T12:56:26.451Z,-2.29
2023-02-04T13:04:53.845Z,-2.17
2023-02-04T13:13:25.500Z,-2.21
2023-02-04T13:21:49.849Z,-1.99
2023-02-04T13:30:16.598Z,-1.85
2023-02-04T13:38:50.131Z,-1.96
2023-02-04T13:47:25.552Z,-2.12
2023-02-04T13:55:49.024Z,-2.16
2023-02-04T14:04:33.315Z,-2.15
2023-02-04T14:12:58.848Z,-2.25
2023-02-04T14:21:24.116Z,-2.39
2023-02-04T14:29:50.162Z,-2.45
2023-02-04T14:38:18.923Z,-2.54
2023-02-04T14:46:45.539Z,-2.60
2023-02-04T14:55:13.074Z,-2.72
2023-02-04T15:03:38.368Z,-2.67
2023-02-04T15:12:06.512Z,-2.68
2023-02-04T15:20:57.112Z,-2.81
2023-02-04T15:29:23.752Z,-2.92
2023-02-04T15:37:54.587Z,-3.01
2023-02-04T15:46:21.653Z,-3.09
2023-02-04T15:54:47.162Z,-3.12
2023-02-04T16:03:10.655Z,-3.13
2023-02-04T16:11:36.412Z,-3.02
2023-02-04T16:19:59.987Z,-2.99
2023-02-04T16:28:23.259Z,-3.04
2023-02-04T16:36:46.916Z,-3.11
2023-02-04T16:45:10.695Z,-3.16
2023-02-04T16:53:35.702Z,-3.22
2023-02-04T17:02:16.471Z,-3.21
2023-02-04T17:10:58.252Z,-3.08
2023-02-04T17:19:27.134Z,-3.01
2023-02-04T17:27:51.850Z,-3.08
2023-02-04T17:36:16.030Z,-3.13
2023-02-04T17:44:39.183Z,-3.15
2023-02-04T17:53:06.551Z,-3.23
2023-02-04T18:01:34.733Z,-3.22
2023-02-04T18:10:19.423Z,-3.17
2023-02-04T18:19:01.408Z,-3.22
2023-02-04T18:27:31.773Z,-3.34
2023-02-04T18:36:03.330Z,-3.51
2023-02-04T18:44:38.152Z,-3.59
2023-02-04T18:53:20.323Z,-3.52
2023-02-04T19:01:46.127Z,-3.50
2023-02-04T19:10:29.241Z,-3.53
2023-02-04T19:18:55.970Z,-3.62
2023-02-04T19:27:33.825Z,-3.67
2023-02-04T19:36:00.807Z,-3.69
2023-02-04T19:44:41.124Z,-3.56
2023-02-04T19:53:19.808Z,-3.53
2023-02-04T20:01:44.168Z,-3.59
2023-02-04T20:10:07.461Z,-3.68
2023-02-04T20:18:32.779Z,-3.81
2023-02-04T20:26:57.899Z,-3.82
2023-02-04T20:35:38.251Z,-3.69
2023-02-04T20:44:38.276Z,-3.65
2023-02-04T20:53:01.630Z,-3.74
2023-02-04T21:01:36.889Z,-3.77
2023-02-04T21:10:05.700Z,-3.80
2023-02-04T21:18:29.925Z,-3.85
2023-02-04T21:26:54.890Z,-3.93
2023-02-04T21:35:24.779Z,-3.90
2023-02-04T21:43:49.069Z,-4.03
2023-02-04T21:52:12.433Z,-4.22
2023-02-04T22:00:37.292Z,-4.24
2023-02-04T22:09:00.524Z,-4.16
2023-02-04T22:17:23.912Z,-4.02
2023-02-04T22:25:47.086Z,-3.77
2023-02-04T22:34:12.381Z,-3.65
2023-02-04T22:42:38.501Z,-3.69
2023-02-04T22:51:05.213Z,-3.78
2023-02-04T22:59:28.986Z,-3.96
2023-02-04T23:07:52.181Z,-4.20
2023-02-04T23:16:15.377Z,-4.36
2023-02-04T23:24:40.559Z,-4.56
2023-02-04T23:33:05.640Z,-4.80
2023-02-04T23:41:28.991Z,-5.00
2023-02-04T23:49:52.114Z,-5.15
2023-02-04T23:58:15.055Z,-5.11
